createdAt,value
2017-09-26T00:01:08.744Z,45.97
2017-09-26T00:03:37.525Z,51.03
2017-09-26T00:06:06.307Z,51.10
2017-09-26T00:08:34.233Z,52.70
2017-09-26T00:11:02.817Z,51.30
2017-09-26T00:13:31.402Z,52.03
2017-09-26T00:15:59.753Z,54.03
2017-09-26T00:18:27.832Z,54.60
2017-09-26T00:20:55.758Z,52.27
2017-09-26T00:23:23.685Z,52.53
2017-09-26T00:25:52.385Z,55.90
2017-09-26T00:28:21.034Z,53.73
2017-09-26T00:30:49.707Z,51.40
2017-09-26T00:33:18.650Z,54.27
2017-09-26T00:35:46.738Z,55.70
2017-09-26T00:38:19.641Z,53.00
2017-09-26T00:40:48.295Z,55.17
2017-09-26T00:43:16.942Z,54.23
2017-09-26T00:45:46.484Z,57.13
2017-09-26T00:48:15.177Z,51.47
2017-09-26T00:50:43.369Z,49.30
2017-09-26T00:53:11.562Z,50.27
2017-09-26T00:55:40.039Z,50.93
2017-09-26T00:58:08.137Z,51.83
2017-09-26T01:00:38.574Z,51.90
2017-09-26T01:03:08.120Z,53.20
2017-09-26T01:05:41.957Z,49.80
2017-09-26T01:08:10.079Z,52.30
2017-09-26T01:10:38.581Z,53.80
2017-09-26T01:13:07.229Z,51.13
2017-09-26T01:15:35.961Z,51.10
2017-09-26T01:18:04.543Z,52.97
2017-09-26T01:20:32.821Z,51.87
2017-09-26T01:23:00.895Z,52.53
2017-09-26T01:25:29.710Z,52.77
2017-09-26T01:27:58.433Z,49.10
2017-09-26T01:30:27.699Z,46.87
2017-09-26T01:32:56.352Z,52.07
2017-09-26T01:35:24.429Z,52.80
2017-09-26T01:37:52.361Z,48.33
2017-09-26T01:40:21.797Z,50.63
2017-09-26T01:42:50.341Z,51.53
2017-09-26T01:45:19.462Z,52.60
2017-09-26T01:47:47.972Z,49.53
2017-09-26T01:50:16.786Z,50.23
2017-09-26T01:52:44.879Z,47.63
2017-09-26T01:55:14.009Z,47.07
2017-09-26T01:57:46.126Z,52.40
2017-09-26T02:00:14.213Z,49.83
2017-09-26T02:02:42.305Z,51.27
2017-09-26T02:05:11.505Z,48.33
2017-09-26T02:07:40.189Z,51.80
2017-09-26T02:10:08.865Z,54.43
2017-09-26T02:12:38.249Z,55.90
2017-09-26T02:15:06.829Z,53.93
2017-09-26T02:17:35.557Z,55.93
2017-09-26T02:20:05.024Z,57.40
2017-09-26T02:22:32.972Z,60.70
2017-09-26T02:25:00.938Z,62.17
2017-09-26T02:27:29.557Z,60.17
2017-09-26T02:29:59.007Z,59.13
2017-09-26T02:32:27.617Z,61.40
2017-09-26T02:35:03.890Z,61.20
2017-09-26T02:37:32.054Z,61.53
2017-09-26T02:39:59.995Z,56.63
2017-09-26T02:42:28.506Z,57.17
2017-09-26T02:44:56.438Z,58.37
2017-09-26T02:47:28.791Z,62.37
2017-09-26T02:49:57.634Z,58.37
2017-09-26T02:52:32.163Z,57.67
2017-09-26T02:55:05.582Z,60.40
2017-09-26T02:57:33.505Z,60.63
2017-09-26T03:00:08.239Z,58.50
2017-09-26T03:02:36.811Z,58.10
2017-09-26T03:05:05.627Z,58.47
2017-09-26T03:07:33.678Z,61.03
2017-09-26T03:10:02.374Z,58.97
2017-09-26T03:12:30.323Z,60.80
2017-09-26T03:14:59.630Z,63.40
2017-09-26T03:17:28.306Z,63.00
2017-09-26T03:19:56.973Z,70.57
2017-09-26T03:22:25.026Z,66.97
2017-09-26T03:24:52.957Z,66.27
2017-09-26T03:27:21.497Z,63.23
2017-09-26T03:29:49.552Z,68.00
2017-09-26T03:32:17.810Z,64.80
2017-09-26T03:34:46.685Z,62.70
2017-09-26T03:37:15.633Z,64.20
2017-09-26T03:39:43.564Z,64.17
2017-09-26T03:42:11.482Z,65.63
2017-09-26T03:44:40.157Z,69.70
2017-09-26T03:47:08.636Z,64.07
2017-09-26T03:49:37.188Z,66.50
2017-09-26T03:52:06.703Z,66.57
2017-09-26T03:54:34.625Z,65.07
2017-09-26T03:57:03.342Z,62.57
2017-09-26T03:59:31.537Z,62.53
2017-09-26T04:02:00.022Z,63.30
2017-09-26T04:04:27.997Z,69.47
2017-09-26T04:06:56.881Z,63.73
2017-09-26T04:09:24.854Z,64.50
2017-09-26T04:11:52.849Z,65.43
2017-09-26T04:14:20.893Z,65.90
2017-09-26T04:16:49.476Z,67.17
2017-09-26T04:19:18.166Z,65.07
2017-09-26T04:21:46.921Z,69.63
2017-09-26T04:24:15.606Z,68.63
2017-09-26T04:26:44.313Z,66.03
2017-09-26T04:29:12.841Z,66.73
2017-09-26T04:31:41.596Z,64.17
2017-09-26T04:34:10.102Z,65.30
2017-09-26T04:36:38.205Z,66.90
2017-09-26T04:39:06.145Z,59.60
2017-09-26T04:41:34.081Z,58.60
2017-09-26T04:44:02.135Z,56.83
2017-09-26T04:46:31.506Z,55.50
2017-09-26T04:49:00.231Z,54.07
2017-09-26T04:51:28.741Z,54.23
2017-09-26T04:53:57.333Z,55.50
2017-09-26T04:56:25.245Z,55.43
2017-09-26T04:58:53.286Z,51.70
2017-09-26T05:01:22.129Z,50.87
2017-09-26T05:03:51.493Z,56.33
2017-09-26T05:06:20.221Z,54.30
2017-09-26T05:08:49.022Z,56.67
2017-09-26T05:11:16.954Z,51.00
2017-09-26T05:13:45.022Z,51.40
2017-09-26T05:16:13.469Z,46.17
2017-09-26T05:18:41.547Z,48.30
2017-09-26T05:21:10.229Z,46.23
2017-09-26T05:23:38.877Z,42.63
2017-09-26T05:26:07.545Z,43.93
2017-09-26T05:28:35.589Z,43.53
2017-09-26T05:31:03.505Z,44.37
2017-09-26T05:33:32.197Z,46.80
2017-09-26T05:36:01.564Z,50.73
2017-09-26T05:38:30.661Z,46.07
2017-09-26T05:40:58.578Z,48.90
2017-09-26T05:43:26.622Z,49.40
2017-09-26T05:45:55.306Z,46.17
2017-09-26T05:48:23.669Z,48.93
2017-09-26T05:50:52.359Z,45.97
2017-09-26T05:53:20.306Z,46.90
2017-09-26T05:55:48.234Z,47.10
2017-09-26T05:58:16.282Z,43.20
2017-09-26T06:00:44.249Z,43.17
2017-09-26T06:03:13.025Z,39.83
2017-09-26T06:05:41.785Z,44.30
2017-09-26T06:08:10.250Z,38.97
2017-09-26T06:10:38.334Z,36.93
2017-09-26T06:13:06.390Z,37.17
2017-09-26T06:15:34.317Z,37.13
2017-09-26T06:18:02.253Z,42.17
2017-09-26T06:20:30.729Z,40.83
2017-09-26T06:22:59.251Z,39.57
2017-09-26T06:25:27.905Z,41.00
2017-09-26T06:27:55.981Z,41.80
2017-09-26T06:30:23.921Z,39.60
2017-09-26T06:32:51.849Z,40.17
2017-09-26T06:35:20.334Z,40.60
2017-09-26T06:37:48.657Z,41.63
2017-09-26T06:40:17.333Z,42.80
2017-09-26T06:42:46.251Z,41.53
2017-09-26T06:45:14.304Z,40.07
2017-09-26T06:47:42.229Z,47.23
2017-09-26T06:50:10.890Z,47.40
2017-09-26T06:52:39.479Z,43.37
2017-09-26T06:55:08.156Z,41.27
2017-09-26T06:57:36.197Z,38.27
2017-09-26T07:00:04.866Z,39.73
2017-09-26T07:02:33.547Z,34.30
2017-09-26T07:05:02.193Z,37.40
2017-09-26T07:07:30.805Z,37.50
2017-09-26T07:09:59.531Z,33.47
2017-09-26T07:12:29.005Z,38.47
2017-09-26T07:14:56.949Z,39.87
2017-09-26T07:17:24.933Z,38.47
2017-09-26T07:19:53.461Z,39.57
2017-09-26T07:22:22.996Z,36.73
2017-09-26T07:24:50.954Z,35.90
2017-09-26T07:27:19.666Z,36.30
2017-09-26T07:29:47.605Z,38.60
2017-09-26T07:32:15.529Z,39.37
2017-09-26T07:34:44.117Z,39.33
2017-09-26T07:37:12.056Z,38.27
2017-09-26T07:39:40.642Z,40.63
2017-09-26T07:42:08.689Z,43.30
2017-09-26T07:44:36.618Z,39.70
2017-09-26T07:47:04.569Z,41.43
2017-09-26T07:49:33.237Z,43.83
2017-09-26T07:52:01.213Z,42.30
2017-09-26T07:54:29.826Z,45.77
2017-09-26T07:56:58.268Z,46.83
2017-09-26T07:59:26.210Z,48.43
2017-09-26T08:01:54.721Z,46.67
2017-09-26T08:04:23.346Z,47.93
2017-09-26T08:06:51.878Z,49.30
2017-09-26T08:09:21.201Z,46.77
2017-09-26T08:11:50.098Z,49.83
2017-09-26T08:14:18.213Z,50.77
2017-09-26T08:16:46.885Z,47.37
2017-09-26T08:19:14.942Z,50.10
2017-09-26T08:21:42.884Z,49.63
2017-09-26T08:24:11.376Z,50.27
2017-09-26T08:26:39.998Z,48.37
2017-09-26T08:29:07.933Z,45.93
2017-09-26T08:31:36.444Z,48.77
2017-09-26T08:34:04.497Z,49.27
2017-09-26T08:36:33.082Z,47.33
2017-09-26T08:39:01.652Z,48.03
2017-09-26T08:41:30.240Z,47.67
2017-09-26T08:43:58.829Z,47.43
2017-09-26T08:46:26.747Z,47.57
2017-09-26T08:48:55.538Z,48.67
2017-09-26T08:51:24.658Z,49.60
2017-09-26T08:53:53.877Z,49.53
2017-09-26T08:56:22.589Z,46.80
2017-09-26T08:58:51.086Z,49.13
2017-09-26T09:01:19.030Z,47.63
2017-09-26T09:03:47.082Z,49.83
2017-09-26T09:06:15.481Z,48.00
2017-09-26T09:08:43.413Z,50.00
2017-09-26T09:11:12.958Z,49.03
2017-09-26T09:13:41.239Z,47.67
2017-09-26T09:16:10.153Z,49.13
2017-09-26T09:18:38.226Z,51.60
2017-09-26T09:21:06.196Z,46.60
2017-09-26T09:23:34.122Z,50.73
2017-09-26T09:26:02.826Z,49.03
2017-09-26T09:28:31.404Z,48.63
2017-09-26T09:30:59.894Z,51.43
2017-09-26T09:33:28.929Z,51.57
2017-09-26T09:35:56.861Z,50.20
2017-09-26T09:38:24.805Z,51.43
2017-09-26T09:40:53.264Z,50.57
2017-09-26T09:43:22.149Z,53.10
2017-09-26T09:45:50.853Z,55.47
2017-09-26T09:48:19.649Z,50.43
2017-09-26T09:50:48.306Z,51.20
2017-09-26T09:53:16.252Z,49.30
2017-09-26T09:55:45.129Z,49.60
2017-09-26T09:58:13.607Z,51.97
2017-09-26T10:00:43.118Z,56.60
2017-09-26T10:03:11.193Z,51.83
2017-09-26T10:05:39.154Z,55.70
2017-09-26T10:08:07.680Z,52.20
2017-09-26T10:10:37.310Z,52.90
2017-09-26T10:13:06.448Z,51.70
2017-09-26T10:15:34.801Z,50.33
2017-09-26T10:18:03.005Z,51.23
2017-09-26T10:20:30.993Z,51.83
2017-09-26T10:22:59.588Z,51.73
2017-09-26T10:25:27.629Z,53.10
2017-09-26T10:27:56.221Z,52.47
2017-09-26T10:30:24.150Z,53.43
2017-09-26T10:32:52.933Z,53.47
2017-09-26T10:35:21.602Z,53.83
2017-09-26T10:37:49.533Z,49.77
2017-09-26T10:40:18.337Z,51.50
2017-09-26T10:42:46.264Z,52.93
2017-09-26T10:45:14.778Z,53.07
2017-09-26T10:47:42.822Z,54.40
2017-09-26T10:50:10.770Z,55.03
2017-09-26T10:52:39.450Z,58.40
2017-09-26T10:55:08.705Z,56.40
2017-09-26T10:57:37.120Z,57.87
2017-09-26T11:00:05.664Z,58.37
2017-09-26T11:02:33.713Z,53.30
2017-09-26T11:05:01.638Z,55.30
2017-09-26T11:07:29.583Z,54.40
2017-09-26T11:09:58.198Z,55.07
2017-09-26T11:12:26.786Z,56.67
2017-09-26T11:14:56.957Z,57.60
2017-09-26T11:17:25.030Z,52.87
2017-09-26T11:19:53.281Z,55.77
2017-09-26T11:22:21.966Z,54.10
2017-09-26T11:24:50.777Z,54.47
2017-09-26T11:27:19.390Z,52.03
2017-09-26T11:29:48.141Z,56.23
2017-09-26T11:32:16.990Z,54.87
2017-09-26T11:34:44.930Z,54.90
2017-09-26T11:37:12.881Z,55.63
2017-09-26T11:39:42.145Z,56.57
2017-09-26T11:42:10.697Z,56.37
2017-09-26T11:44:39.277Z,53.67
2017-09-26T11:47:08.133Z,50.53
2017-09-26T11:49:36.805Z,54.47
2017-09-26T11:52:05.639Z,49.70
2017-09-26T11:54:33.769Z,50.87
2017-09-26T11:57:03.057Z,50.77
2017-09-26T11:59:31.138Z,61.10
2017-09-26T12:01:59.783Z,55.30
2017-09-26T12:04:27.729Z,53.83
2017-09-26T12:06:55.674Z,51.17
2017-09-26T12:09:24.461Z,51.60
2017-09-26T12:11:53.131Z,49.17
2017-09-26T12:14:21.082Z,55.17
2017-09-26T12:16:53.216Z,48.53
2017-09-26T12:19:21.149Z,47.77
2017-09-26T12:21:49.233Z,50.23
2017-09-26T12:24:18.045Z,48.27
2017-09-26T12:26:45.990Z,46.87
2017-09-26T12:29:20.482Z,47.30
2017-09-26T12:31:50.203Z,45.03
2017-09-26T12:34:18.558Z,45.97
2017-09-26T12:36:46.610Z,51.40
2017-09-26T12:39:14.882Z,45.43
2017-09-26T12:41:45.840Z,42.00
2017-09-26T12:44:13.912Z,45.13
2017-09-26T12:46:41.865Z,52.80
2017-09-26T12:49:10.568Z,43.37
2017-09-26T12:51:39.409Z,48.83
2017-09-26T12:54:07.473Z,49.70
2017-09-26T12:56:36.167Z,48.33
2017-09-26T12:59:04.212Z,44.20
2017-09-26T13:01:32.775Z,46.67
2017-09-26T13:04:01.098Z,47.67
2017-09-26T13:06:29.174Z,44.40
2017-09-26T13:08:57.250Z,42.40
2017-09-26T13:11:25.183Z,43.67
2017-09-26T13:13:53.243Z,44.37
2017-09-26T13:16:21.185Z,40.40
2017-09-26T13:18:50.057Z,41.27
2017-09-26T13:21:18.109Z,40.60
2017-09-26T13:23:46.181Z,40.00
2017-09-26T13:26:14.105Z,42.17
2017-09-26T13:28:42.607Z,42.23
2017-09-26T13:31:11.194Z,47.00
2017-09-26T13:33:39.874Z,43.30
2017-09-26T13:36:08.465Z,42.97
2017-09-26T13:38:36.397Z,41.23
2017-09-26T13:41:05.098Z,37.93
2017-09-26T13:43:33.145Z,38.80
2017-09-26T13:46:01.817Z,43.43
2017-09-26T13:48:29.794Z,47.03
2017-09-26T13:50:57.869Z,44.73
2017-09-26T13:53:25.847Z,37.80
2017-09-26T13:55:54.514Z,38.27
2017-09-26T13:58:22.589Z,38.33
2017-09-26T14:00:50.524Z,38.57
2017-09-26T14:03:18.466Z,41.23
2017-09-26T14:05:46.549Z,40.33
2017-09-26T14:08:14.477Z,39.83
2017-09-26T14:10:42.457Z,41.00
2017-09-26T14:13:11.245Z,39.90
2017-09-26T14:15:39.193Z,42.87
2017-09-26T14:18:07.130Z,39.83
2017-09-26T14:20:35.285Z,48.50
2017-09-26T14:23:03.349Z,38.40
2017-09-26T14:25:31.431Z,39.80
2017-09-26T14:27:59.477Z,42.83
2017-09-26T14:30:28.657Z,39.93
2017-09-26T14:32:56.590Z,40.93
2017-09-26T14:35:25.218Z,43.07
2017-09-26T14:37:53.146Z,43.23
2017-09-26T14:40:21.338Z,41.17
2017-09-26T14:42:49.377Z,41.47
2017-09-26T14:45:17.308Z,46.70
2017-09-26T14:47:45.232Z,43.47
2017-09-26T14:50:14.100Z,45.50
2017-09-26T14:52:42.782Z,42.13
2017-09-26T14:55:11.440Z,42.93
2017-09-26T14:57:39.558Z,47.30
2017-09-26T15:00:07.893Z,48.17
2017-09-26T15:02:35.834Z,45.90
2017-09-26T15:05:04.469Z,45.53
2017-09-26T15:07:33.588Z,44.67
2017-09-26T15:10:01.526Z,49.13
2017-09-26T15:12:29.826Z,44.00
2017-09-26T15:14:58.502Z,48.00
2017-09-26T15:17:27.177Z,45.07
2017-09-26T15:19:55.225Z,49.93
2017-09-26T15:22:23.169Z,44.90
2017-09-26T15:24:51.588Z,52.00
2017-09-26T15:27:19.769Z,44.80
2017-09-26T15:29:47.700Z,46.50
2017-09-26T15:32:15.882Z,45.30
2017-09-26T15:34:44.630Z,46.93
2017-09-26T15:37:13.892Z,43.50
2017-09-26T15:39:41.817Z,44.10
2017-09-26T15:42:09.854Z,46.30
2017-09-26T15:44:37.796Z,45.47
2017-09-26T15:47:06.534Z,48.63
2017-09-26T15:49:35.973Z,45.93
2017-09-26T15:52:04.662Z,44.83
2017-09-26T15:54:33.309Z,55.30
2017-09-26T15:57:02.110Z,51.07
2017-09-26T15:59:30.037Z,45.93
2017-09-26T16:01:58.517Z,46.30
2017-09-26T16:04:27.207Z,47.43
2017-09-26T16:06:56.506Z,49.07
2017-09-26T16:09:25.054Z,47.00
2017-09-26T16:11:53.207Z,48.37
2017-09-26T16:14:21.179Z,46.83
2017-09-26T16:16:49.589Z,45.93
2017-09-26T16:19:18.476Z,45.63
2017-09-26T16:21:46.450Z,44.20
2017-09-26T16:24:14.425Z,40.57
2017-09-26T16:26:42.474Z,43.00
2017-09-26T16:29:10.562Z,45.33
2017-09-26T16:31:39.164Z,56.37
2017-09-26T16:34:07.868Z,43.73
2017-09-26T16:36:35.813Z,42.77
2017-09-26T16:39:04.717Z,42.70
2017-09-26T16:41:32.924Z,43.73
2017-09-26T16:44:01.629Z,48.43
2017-09-26T16:46:30.317Z,47.07
2017-09-26T16:48:59.636Z,44.80
2017-09-26T16:51:27.598Z,44.57
2017-09-26T16:56:30.097Z,46.13
2017-09-26T16:58:58.037Z,45.70
2017-09-26T17:01:26.702Z,43.67
2017-09-26T17:03:55.126Z,42.17
2017-09-26T17:06:24.398Z,45.00
2017-09-26T17:08:52.974Z,45.97
2017-09-26T17:11:21.049Z,54.53
2017-09-26T17:13:48.975Z,46.33
2017-09-26T17:16:17.398Z,47.73
2017-09-26T17:18:45.441Z,47.60
2017-09-26T17:21:13.419Z,44.77
2017-09-26T17:23:41.869Z,44.17
2017-09-26T17:26:10.410Z,44.50
2017-09-26T17:28:38.380Z,49.30
2017-09-26T17:31:06.433Z,47.87
2017-09-26T17:33:35.008Z,47.87
2017-09-26T17:36:03.410Z,45.10
2017-09-26T17:38:32.030Z,54.60
2017-09-26T17:41:01.500Z,43.60
2017-09-26T17:43:29.487Z,45.70
2017-09-26T17:45:58.149Z,48.03
2017-09-26T17:48:26.850Z,50.40
2017-09-26T17:50:54.774Z,48.10
2017-09-26T17:53:22.721Z,46.77
2017-09-26T17:55:52.292Z,47.30
2017-09-26T17:58:20.205Z,44.67
2017-09-26T18:00:48.890Z,43.30
2017-09-26T18:03:17.801Z,50.63
2017-09-26T18:05:46.168Z,50.83
2017-09-26T18:08:14.673Z,54.73
2017-09-26T18:10:43.494Z,50.43
2017-09-26T18:13:11.447Z,45.60
2017-09-26T18:15:39.369Z,45.77
2017-09-26T18:18:08.151Z,48.40
2017-09-26T18:20:37.666Z,46.90
2017-09-26T18:23:06.363Z,46.97
2017-09-26T18:25:34.414Z,46.53
2017-09-26T18:28:03.082Z,46.83
2017-09-26T18:30:31.178Z,47.63
2017-09-26T18:33:00.589Z,46.40
2017-09-26T18:35:29.851Z,47.93
2017-09-26T18:37:59.438Z,51.20
2017-09-26T18:40:28.293Z,49.17
2017-09-26T18:42:57.530Z,50.80
2017-09-26T18:45:26.310Z,51.50
2017-09-26T18:47:54.350Z,50.13
2017-09-26T18:50:23.010Z,51.23
2017-09-26T18:52:50.949Z,53.60
2017-09-26T18:55:18.973Z,53.17
2017-09-26T18:57:48.314Z,52.13
2017-09-26T19:00:16.842Z,50.03
2017-09-26T19:02:44.881Z,54.27
2017-09-26T19:05:13.289Z,54.90
2017-09-26T19:07:41.841Z,49.00
2017-09-26T19:10:10.310Z,52.67
2017-09-26T19:12:38.225Z,56.73
2017-09-26T19:15:06.645Z,54.30
2017-09-26T19:17:34.690Z,57.30
2017-09-26T19:20:02.606Z,64.63
2017-09-26T19:22:30.568Z,59.27
2017-09-26T19:24:59.179Z,59.77
2017-09-26T19:27:27.858Z,57.20
2017-09-26T19:29:55.810Z,57.70
2017-09-26T19:32:23.851Z,61.30
2017-09-26T19:34:52.525Z,61.90
2017-09-26T19:37:21.037Z,58.40
2017-09-26T19:39:50.681Z,56.50
2017-09-26T19:42:18.613Z,56.23
2017-09-26T19:44:48.058Z,59.47
2017-09-26T19:47:16.121Z,56.27
2017-09-26T19:49:44.094Z,54.07
2017-09-26T19:52:12.481Z,56.80
2017-09-26T19:54:41.088Z,53.93
2017-09-26T19:57:09.478Z,54.53
2017-09-26T19:59:37.409Z,52.90
2017-09-26T20:02:05.446Z,56.00
2017-09-26T20:04:34.118Z,53.33
2017-09-26T20:07:02.834Z,60.90
2017-09-26T20:09:31.479Z,54.80
2017-09-26T20:12:00.057Z,52.40
2017-09-26T20:14:28.782Z,56.57
2017-09-26T20:16:58.321Z,51.87
2017-09-26T20:19:26.237Z,57.10
2017-09-26T20:21:54.162Z,54.17
2017-09-26T20:24:22.701Z,55.03
2017-09-26T20:26:52.113Z,53.90
2017-09-26T20:29:21.453Z,53.80
2017-09-26T20:31:49.482Z,53.67
2017-09-26T20:34:18.156Z,51.83
2017-09-26T20:36:46.085Z,52.70
2017-09-26T20:39:14.118Z,52.43
2017-09-26T20:41:43.456Z,60.23
2017-09-26T20:44:12.137Z,58.53
2017-09-26T20:46:40.190Z,52.77
2017-09-26T20:49:08.118Z,51.53
2017-09-26T20:51:36.037Z,57.37
2017-09-26T20:54:04.565Z,59.70
2017-09-26T20:56:33.085Z,61.83
2017-09-26T20:59:01.745Z,60.13
2017-09-26T21:01:30.321Z,63.70
2017-09-26T21:03:58.949Z,65.73
2017-09-26T21:06:26.861Z,63.73
2017-09-26T21:08:54.914Z,63.87
2017-09-26T21:11:22.837Z,67.30
2017-09-26T21:13:51.493Z,67.93
2017-09-26T21:16:20.161Z,67.67
2017-09-26T21:18:48.745Z,68.17
2017-09-26T21:21:16.682Z,66.90
2017-09-26T21:23:45.470Z,74.33
2017-09-26T21:26:14.157Z,73.70
2017-09-26T21:28:42.806Z,70.97
2017-09-26T21:31:11.369Z,74.47
2017-09-26T21:33:39.878Z,71.07
2017-09-26T21:36:07.817Z,70.60
2017-09-26T21:38:35.852Z,74.23
2017-09-26T21:41:05.162Z,72.43
2017-09-26T21:43:33.090Z,70.00
2017-09-26T21:46:01.779Z,70.20
2017-09-26T21:48:30.427Z,70.97
2017-09-26T21:50:58.365Z,68.57
2017-09-26T21:53:27.136Z,66.77
2017-09-26T21:55:55.490Z,71.47
2017-09-26T21:58:24.061Z,75.13
2017-09-26T22:00:52.878Z,75.83
2017-09-26T22:03:21.301Z,78.63
2017-09-26T22:05:49.229Z,78.47
2017-09-26T22:08:17.274Z,78.67
2017-09-26T22:10:45.957Z,75.73
2017-09-26T22:13:14.309Z,73.67
2017-09-26T22:15:42.355Z,78.43
2017-09-26T22:18:11.573Z,77.23
2017-09-26T22:20:40.230Z,79.50
2017-09-26T22:23:08.264Z,75.27
2017-09-26T22:25:36.190Z,78.57
2017-09-26T22:28:05.365Z,74.77
2017-09-26T22:30:34.026Z,77.00
2017-09-26T22:33:02.669Z,82.27
2017-09-26T22:35:31.329Z,77.40
2017-09-26T22:37:59.361Z,77.87
2017-09-26T22:40:27.291Z,76.83
2017-09-26T22:42:56.466Z,81.50
2017-09-26T22:45:24.525Z,77.07
2017-09-26T22:47:52.434Z,77.40
2017-09-26T22:50:21.601Z,79.27
2017-09-26T22:52:49.653Z,78.97
2017-09-26T22:55:17.581Z,79.13
2017-09-26T22:57:46.883Z,77.60
2017-09-26T23:00:16.321Z,78.50
2017-09-26T23:02:45.013Z,80.80
2017-09-26T23:05:12.979Z,84.13
2017-09-26T23:07:41.025Z,80.63
2017-09-26T23:10:08.949Z,79.03
2017-09-26T23:12:37.382Z,81.43
2017-09-26T23:15:05.890Z,81.10
2017-09-26T23:17:34.573Z,81.33
2017-09-26T23:20:03.089Z,81.43
2017-09-26T23:22:31.133Z,83.10
2017-09-26T23:24:59.066Z,86.77
2017-09-26T23:27:27.717Z,80.33
2017-09-26T23:29:55.758Z,85.83
2017-09-26T23:32:24.342Z,85.03
2017-09-26T23:34:52.802Z,80.20
2017-09-26T23:37:20.841Z,81.60
2017-09-26T23:39:48.753Z,84.00
2017-09-26T23:42:16.686Z,86.13
2017-09-26T23:44:45.933Z,85.90
2017-09-26T23:47:13.870Z,87.80
2017-09-26T23:49:43.214Z,84.87
2017-09-26T23:52:11.997Z,87.43
2017-09-26T23:54:39.945Z,86.20
2017-09-26T23:57:07.878Z,86.83
2017-09-26T23:59:36.421Z,87.03
